createdAt,value
2019-03-10T10:42:35.538Z,22.53
2019-03-10T10:45:16.487Z,25.40
2019-03-10T10:47:57.460Z,25.27
2019-03-10T10:50:38.453Z,23.30
2019-03-10T10:53:21.402Z,23.27
2019-03-10T10:56:00.824Z,22.07
2019-03-10T10:58:41.464Z,31.00
2019-03-10T11:01:22.431Z,30.63
2019-03-10T11:04:03.114Z,23.97
2019-03-10T11:06:44.213Z,24.73
2019-03-10T11:09:25.139Z,24.67
2019-03-10T11:12:06.043Z,24.43
2019-03-10T11:14:46.803Z,23.27
2019-03-10T11:17:27.282Z,22.80
2019-03-10T11:20:07.820Z,23.23
2019-03-10T11:22:49.012Z,23.20
2019-03-10T11:25:29.884Z,23.73
2019-03-10T11:28:10.412Z,23.53
2019-03-10T11:30:50.597Z,23.03
2019-03-10T11:33:30.942Z,23.40
2019-03-10T11:36:10.829Z,23.77
2019-03-10T11:38:51.401Z,23.77
2019-03-10T11:41:34.069Z,23.43
2019-03-10T11:44:12.495Z,23.53
2019-03-10T11:46:52.541Z,23.57
2019-03-10T11:49:33.353Z,25.03
2019-03-10T11:52:14.209Z,24.47
2019-03-10T11:54:55.195Z,25.37
2019-03-10T11:57:35.831Z,23.03
2019-03-10T12:00:16.406Z,22.80
2019-03-10T12:02:58.130Z,23.77
2019-03-10T12:05:38.930Z,24.17
2019-03-10T12:08:19.152Z,23.53
2019-03-10T12:10:59.892Z,23.57
2019-03-10T12:13:40.642Z,23.70
2019-03-10T12:16:21.785Z,23.77
2019-03-10T12:19:02.726Z,25.03
2019-03-10T12:21:43.730Z,24.07
2019-03-10T12:24:24.697Z,25.17
2019-03-10T12:27:05.500Z,25.43
2019-03-10T12:29:46.316Z,26.47
2019-03-10T12:32:27.122Z,25.07
2019-03-10T12:35:08.147Z,28.07
2019-03-10T12:37:49.056Z,27.50
2019-03-10T12:40:30.130Z,29.73
2019-03-10T12:43:11.109Z,31.30
2019-03-10T12:45:51.638Z,32.47
2019-03-10T12:48:32.450Z,32.47
2019-03-10T12:51:13.977Z,40.23
2019-03-10T12:53:54.961Z,40.03
2019-03-10T12:56:35.441Z,42.83
2019-03-10T12:59:16.841Z,46.67
2019-03-10T13:01:58.035Z,45.57
2019-03-10T13:04:38.754Z,43.37
2019-03-10T13:07:19.493Z,43.70
2019-03-10T13:10:00.030Z,41.73
2019-03-10T13:12:40.003Z,39.43
2019-03-10T13:15:23.948Z,38.77
2019-03-10T13:18:04.160Z,36.87
2019-03-10T13:20:45.208Z,36.27
2019-03-10T13:23:25.909Z,37.23
2019-03-10T13:26:06.183Z,37.43
2019-03-10T13:28:46.158Z,36.70
2019-03-10T13:31:26.619Z,36.80
2019-03-10T13:34:07.113Z,37.00
2019-03-10T13:36:47.062Z,38.37
2019-03-10T13:39:28.280Z,36.50
2019-03-10T13:42:08.353Z,35.67
2019-03-10T13:44:48.235Z,35.63
2019-03-10T13:47:28.181Z,36.73
2019-03-10T13:50:08.301Z,36.00
2019-03-10T13:52:48.912Z,37.30
2019-03-10T13:55:28.706Z,34.47
2019-03-10T13:58:09.950Z,34.30
2019-03-10T14:00:50.158Z,34.27
2019-03-10T14:03:30.588Z,34.10
2019-03-10T14:06:10.706Z,36.80
2019-03-10T14:08:50.919Z,32.53
2019-03-10T14:11:31.169Z,35.03
2019-03-10T14:14:11.405Z,34.87
2019-03-10T14:16:51.495Z,35.60
2019-03-10T14:19:31.666Z,36.77
2019-03-10T14:22:11.970Z,38.73
2019-03-10T14:24:52.310Z,38.20
2019-03-10T14:27:33.293Z,40.50
2019-03-10T14:30:13.567Z,39.50
2019-03-10T14:32:53.807Z,40.77
2019-03-10T14:35:33.996Z,42.77
2019-03-10T14:38:14.735Z,42.13
2019-03-10T14:40:55.379Z,43.40
2019-03-10T14:43:36.160Z,43.40
2019-03-10T14:46:16.415Z,39.03
2019-03-10T14:48:57.382Z,41.53
2019-03-10T14:51:37.716Z,41.13
2019-03-10T14:54:18.817Z,40.93
2019-03-10T14:57:02.420Z,40.97
2019-03-10T14:59:40.389Z,47.47
2019-03-10T15:02:20.519Z,47.50
2019-03-10T15:05:00.668Z,45.23
2019-03-10T15:07:40.691Z,43.30
2019-03-10T15:10:20.734Z,48.17
2019-03-10T15:13:00.587Z,48.00
2019-03-10T15:15:41.253Z,49.43
2019-03-10T15:18:21.633Z,49.97
2019-03-10T15:21:02.132Z,50.77
2019-03-10T15:23:42.498Z,50.80
2019-03-10T15:26:23.151Z,51.57
2019-03-10T15:29:03.504Z,55.70
2019-03-10T15:31:43.711Z,57.07
2019-03-10T15:34:23.936Z,58.77
2019-03-10T15:37:04.808Z,63.70
2019-03-10T15:39:45.193Z,62.07
2019-03-10T15:42:25.144Z,54.90
2019-03-10T15:45:08.640Z,57.93
2019-03-10T15:47:49.790Z,57.20
2019-03-10T15:50:29.983Z,58.13
2019-03-10T15:53:10.694Z,58.17
2019-03-10T15:55:51.017Z,60.10
2019-03-10T15:58:31.362Z,59.07
2019-03-10T16:01:11.146Z,63.83
2019-03-10T16:03:51.175Z,58.67
2019-03-10T16:06:31.455Z,60.83
2019-03-10T16:09:11.640Z,60.07
2019-03-10T16:11:52.123Z,62.93
2019-03-10T16:14:32.471Z,63.00
2019-03-10T16:17:12.503Z,61.33
2019-03-10T16:19:52.563Z,59.80
2019-03-10T16:22:34.735Z,62.60
2019-03-10T16:25:13.891Z,64.77
2019-03-10T16:27:54.534Z,63.60
2019-03-10T16:30:40.435Z,62.77
2019-03-10T16:33:26.977Z,63.77
2019-03-10T16:36:16.830Z,63.03
2019-03-10T16:39:03.892Z,64.13
2019-03-10T16:41:53.470Z,65.13
2019-03-10T16:44:37.002Z,69.53
2019-03-10T16:47:18.463Z,66.93
2019-03-10T16:49:58.725Z,71.07
2019-03-10T16:52:39.931Z,70.53
2019-03-10T16:55:22.334Z,72.27
2019-03-10T16:58:06.399Z,72.20
2019-03-10T17:00:47.921Z,72.97
2019-03-10T17:03:32.708Z,74.67
2019-03-10T17:06:16.514Z,68.67
2019-03-10T17:09:04.789Z,74.27
2019-03-10T17:11:50.413Z,70.57
2019-03-10T17:14:37.360Z,71.40
2019-03-10T17:17:24.440Z,66.10
2019-03-10T17:20:06.021Z,67.30
2019-03-10T17:22:46.559Z,68.27
2019-03-10T17:25:26.581Z,68.77
2019-03-10T17:28:11.075Z,66.37
2019-03-10T17:30:55.227Z,68.03
2019-03-10T17:33:38.613Z,66.50
2019-03-10T17:36:25.145Z,69.63
2019-03-10T17:39:12.839Z,67.50
2019-03-10T17:41:59.140Z,66.27
2019-03-10T17:44:47.099Z,62.10
2019-03-10T17:50:21.126Z,58.03
2019-03-10T17:53:07.803Z,64.83
2019-03-10T17:55:55.263Z,59.63
2019-03-10T17:58:43.276Z,61.00
2019-03-10T18:01:28.292Z,60.97
2019-03-10T18:04:14.423Z,59.67
2019-03-10T18:06:59.443Z,61.93
2019-03-10T18:09:48.165Z,60.73
2019-03-10T18:12:36.238Z,62.70
2019-03-10T18:15:24.588Z,59.87
2019-03-10T18:20:52.913Z,62.57
2019-03-10T18:23:34.170Z,61.53
2019-03-10T18:26:14.882Z,58.17
2019-03-10T18:28:57.931Z,57.23
2019-03-10T18:37:04.540Z,56.30
2019-03-10T18:39:48.316Z,53.93
2019-03-10T18:45:12.511Z,48.70
2019-03-10T18:47:52.696Z,49.60
2019-03-10T18:50:33.853Z,52.67
2019-03-10T18:53:14.372Z,50.13
2019-03-10T18:55:54.989Z,50.90
2019-03-10T19:01:21.318Z,46.77
2019-03-10T19:04:01.357Z,50.23
2019-03-10T19:06:42.310Z,50.00
